sensor_id;sensor_type;location;lat;lon;timestamp;P1;durP1;ratioP1;P2;durP2;ratioP2
71265;SDS011;59030;52.052;8.550;2022-09-12T00:01:22;10.97;;;8.30;;
71265;SDS011;59030;52.052;8.550;2022-09-12T00:03:51;10.20;;;8.53;;
71265;SDS011;59030;52.052;8.550;2022-09-12T00:06:19;11.67;;;8.97;;
71265;SDS011;59030;52.052;8.550;2022-09-12T00:08:47;13.27;;;8.73;;
71265;SDS011;59030;52.052;8.550;2022-09-12T00:11:14;13.73;;;9.37;;
71265;SDS011;59030;52.052;8.550;2022-09-12T00:13:42;10.07;;;8.53;;
71265;SDS011;59030;52.052;8.550;2022-09-12T00:16:19;11.63;;;9.30;;
71265;SDS011;59030;52.052;8.550;2022-09-12T00:18:47;12.47;;;9.53;;
71265;SDS011;59030;52.052;8.550;2022-09-12T00:21:14;12.37;;;9.43;;
71265;SDS011;59030;52.052;8.550;2022-09-12T00:23:42;13.73;;;9.63;;
71265;SDS011;59030;52.052;8.550;2022-09-12T00:26:10;12.77;;;9.50;;
71265;SDS011;59030;52.052;8.550;2022-09-12T00:28:38;12.63;;;9.03;;
71265;SDS011;59030;52.052;8.550;2022-09-12T00:31:06;10.57;;;9.13;;
71265;SDS011;59030;52.052;8.550;2022-09-12T00:33:34;11.33;;;9.23;;
71265;SDS011;59030;52.052;8.550;2022-09-12T00:36:03;11.63;;;9.23;;
71265;SDS011;59030;52.052;8.550;2022-09-12T00:38:31;10.63;;;8.97;;
71265;SDS011;59030;52.052;8.550;2022-09-12T00:40:58;10.80;;;9.17;;
71265;SDS011;59030;52.052;8.550;2022-09-12T00:43:36;12.93;;;9.77;;
71265;SDS011;59030;52.052;8.550;2022-09-12T00:46:05;13.93;;;9.40;;
71265;SDS011;59030;52.052;8.550;2022-09-12T00:48:35;13.30;;;9.17;;
71265;SDS011;59030;52.052;8.550;2022-09-12T00:51:02;11.30;;;9.13;;
71265;SDS011;59030;52.052;8.550;2022-09-12T00:53:30;11.60;;;9.13;;
71265;SDS011;59030;52.052;8.550;2022-09-12T00:55:58;12.53;;;8.77;;
71265;SDS011;59030;52.052;8.550;2022-09-12T00:58:27;11.77;;;9.10;;
71265;SDS011;59030;52.052;8.550;2022-09-12T01:00:55;12.83;;;8.77;;
71265;SDS011;59030;52.052;8.550;2022-09-12T01:03:22;13.07;;;9.10;;
71265;SDS011;59030;52.052;8.550;2022-09-12T01:05:52;13.07;;;9.73;;
71265;SDS011;59030;52.052;8.550;2022-09-12T01:08:21;12.50;;;9.00;;
71265;SDS011;59030;52.052;8.550;2022-09-12T01:10:49;12.27;;;9.03;;
71265;SDS011;59030;52.052;8.550;2022-09-12T01:13:16;11.03;;;8.80;;
71265;SDS011;59030;52.052;8.550;2022-09-12T01:15:43;13.37;;;9.77;;
71265;SDS011;59030;52.052;8.550;2022-09-12T01:18:14;10.67;;;9.33;;
71265;SDS011;59030;52.052;8.550;2022-09-12T01:20:47;13.53;;;9.40;;
71265;SDS011;59030;52.052;8.550;2022-09-12T01:26:16;11.40;;;8.90;;
71265;SDS011;59030;52.052;8.550;2022-09-12T01:28:57;11.23;;;9.13;;
71265;SDS011;59030;52.052;8.550;2022-09-12T01:31:24;13.10;;;9.40;;
71265;SDS011;59030;52.052;8.550;2022-09-12T01:33:56;12.57;;;9.33;;
71265;SDS011;59030;52.052;8.550;2022-09-12T01:36:32;13.97;;;9.87;;
71265;SDS011;59030;52.052;8.550;2022-09-12T01:39:02;12.10;;;9.60;;
71265;SDS011;59030;52.052;8.550;2022-09-12T01:41:31;12.23;;;9.37;;
71265;SDS011;59030;52.052;8.550;2022-09-12T01:44:00;11.50;;;9.53;;
71265;SDS011;59030;52.052;8.550;2022-09-12T01:46:29;14.50;;;9.13;;
71265;SDS011;59030;52.052;8.550;2022-09-12T01:48:59;9.83;;;8.50;;
71265;SDS011;59030;52.052;8.550;2022-09-12T01:51:27;12.30;;;8.97;;
71265;SDS011;59030;52.052;8.550;2022-09-12T01:53:57;12.07;;;9.30;;
71265;SDS011;59030;52.052;8.550;2022-09-12T01:56:25;11.60;;;9.20;;
71265;SDS011;59030;52.052;8.550;2022-09-12T01:58:54;11.30;;;8.93;;
71265;SDS011;59030;52.052;8.550;2022-09-12T02:01:23;13.17;;;8.67;;
71265;SDS011;59030;52.052;8.550;2022-09-12T02:03:52;10.90;;;8.90;;
71265;SDS011;59030;52.052;8.550;2022-09-12T02:06:22;11.70;;;9.53;;
71265;SDS011;59030;52.052;8.550;2022-09-12T02:08:51;11.37;;;9.13;;
71265;SDS011;59030;52.052;8.550;2022-09-12T02:11:18;12.73;;;9.40;;
71265;SDS011;59030;52.052;8.550;2022-09-12T02:13:48;11.17;;;8.60;;
71265;SDS011;59030;52.052;8.550;2022-09-12T02:16:16;12.90;;;10.03;;
71265;SDS011;59030;52.052;8.550;2022-09-12T02:18:46;13.53;;;9.47;;
71265;SDS011;59030;52.052;8.550;2022-09-12T02:21:13;12.10;;;9.00;;
71265;SDS011;59030;52.052;8.550;2022-09-12T02:23:42;11.57;;;9.23;;
71265;SDS011;59030;52.052;8.550;2022-09-12T02:26:11;12.50;;;9.20;;
71265;SDS011;59030;52.052;8.550;2022-09-12T02:28:40;11.33;;;9.10;;
71265;SDS011;59030;52.052;8.550;2022-09-12T02:31:10;11.03;;;9.13;;
71265;SDS011;59030;52.052;8.550;2022-09-12T02:33:40;10.47;;;8.93;;
71265;SDS011;59030;52.052;8.550;2022-09-12T02:36:09;12.13;;;8.83;;
71265;SDS011;59030;52.052;8.550;2022-09-12T02:38:39;11.00;;;8.07;;
71265;SDS011;59030;52.052;8.550;2022-09-12T02:41:07;12.33;;;8.13;;
71265;SDS011;59030;52.052;8.550;2022-09-12T02:43:35;9.47;;;7.90;;
71265;SDS011;59030;52.052;8.550;2022-09-12T02:46:03;9.43;;;8.40;;
71265;SDS011;59030;52.052;8.550;2022-09-12T02:48:32;11.53;;;8.17;;
71265;SDS011;59030;52.052;8.550;2022-09-12T02:51:00;9.77;;;7.63;;
71265;SDS011;59030;52.052;8.550;2022-09-12T02:53:28;12.20;;;8.07;;
71265;SDS011;59030;52.052;8.550;2022-09-12T02:55:55;12.00;;;8.13;;
71265;SDS011;59030;52.052;8.550;2022-09-12T02:58:23;8.70;;;7.30;;
71265;SDS011;59030;52.052;8.550;2022-09-12T03:00:53;10.20;;;7.73;;
71265;SDS011;59030;52.052;8.550;2022-09-12T03:03:25;10.43;;;7.70;;
71265;SDS011;59030;52.052;8.550;2022-09-12T03:05:54;12.10;;;7.60;;
71265;SDS011;59030;52.052;8.550;2022-09-12T03:08:30;10.63;;;7.53;;
71265;SDS011;59030;52.052;8.550;2022-09-12T03:11:08;10.17;;;7.87;;
71265;SDS011;59030;52.052;8.550;2022-09-12T03:13:39;8.97;;;7.90;;
71265;SDS011;59030;52.052;8.550;2022-09-12T03:16:10;10.17;;;8.20;;
71265;SDS011;59030;52.052;8.550;2022-09-12T03:18:40;11.27;;;8.33;;
71265;SDS011;59030;52.052;8.550;2022-09-12T03:21:10;11.37;;;8.50;;
71265;SDS011;59030;52.052;8.550;2022-09-12T03:23:39;10.03;;;7.97;;
71265;SDS011;59030;52.052;8.550;2022-09-12T03:26:08;10.57;;;8.17;;
71265;SDS011;59030;52.052;8.550;2022-09-12T03:28:35;11.87;;;8.43;;
71265;SDS011;59030;52.052;8.550;2022-09-12T03:31:11;10.83;;;8.63;;
71265;SDS011;59030;52.052;8.550;2022-09-12T03:33:39;11.97;;;9.03;;
71265;SDS011;59030;52.052;8.550;2022-09-12T03:36:08;12.40;;;9.33;;
71265;SDS011;59030;52.052;8.550;2022-09-12T03:38:37;14.07;;;9.60;;
71265;SDS011;59030;52.052;8.550;2022-09-12T03:41:04;14.30;;;10.03;;
71265;SDS011;59030;52.052;8.550;2022-09-12T03:43:33;13.27;;;10.33;;
71265;SDS011;59030;52.052;8.550;2022-09-12T03:46:01;11.57;;;9.60;;
71265;SDS011;59030;52.052;8.550;2022-09-12T03:48:28;12.10;;;9.67;;
71265;SDS011;59030;52.052;8.550;2022-09-12T03:50:59;13.03;;;10.60;;
71265;SDS011;59030;52.052;8.550;2022-09-12T03:53:26;15.87;;;10.60;;
71265;SDS011;59030;52.052;8.550;2022-09-12T03:55:53;11.87;;;10.07;;
71265;SDS011;59030;52.052;8.550;2022-09-12T03:58:21;14.70;;;10.23;;
71265;SDS011;59030;52.052;8.550;2022-09-12T04:00:48;13.03;;;10.67;;
71265;SDS011;59030;52.052;8.550;2022-09-12T04:03:15;14.70;;;10.87;;
71265;SDS011;59030;52.052;8.550;2022-09-12T04:05:44;13.67;;;10.97;;
71265;SDS011;59030;52.052;8.550;2022-09-12T04:08:11;14.37;;;10.67;;
71265;SDS011;59030;52.052;8.550;2022-09-12T04:10:39;13.17;;;10.30;;
71265;SDS011;59030;52.052;8.550;2022-09-12T04:13:08;14.50;;;9.53;;
71265;SDS011;59030;52.052;8.550;2022-09-12T04:15:35;13.90;;;10.40;;
71265;SDS011;59030;52.052;8.550;2022-09-12T04:18:03;13.27;;;10.13;;
71265;SDS011;59030;52.052;8.550;2022-09-12T04:20:30;12.80;;;10.10;;
71265;SDS011;59030;52.052;8.550;2022-09-12T04:22:58;13.50;;;9.63;;
71265;SDS011;59030;52.052;8.550;2022-09-12T04:25:26;14.30;;;9.80;;
71265;SDS011;59030;52.052;8.550;2022-09-12T04:27:53;12.27;;;9.67;;
71265;SDS011;59030;52.052;8.550;2022-09-12T04:30:20;13.13;;;9.90;;
71265;SDS011;59030;52.052;8.550;2022-09-12T04:32:48;12.60;;;9.57;;
71265;SDS011;59030;52.052;8.550;2022-09-12T04:35:15;12.43;;;9.50;;
71265;SDS011;59030;52.052;8.550;2022-09-12T04:37:42;14.00;;;9.73;;
71265;SDS011;59030;52.052;8.550;2022-09-12T04:40:10;12.07;;;9.37;;
71265;SDS011;59030;52.052;8.550;2022-09-12T04:42:37;11.47;;;9.40;;
71265;SDS011;59030;52.052;8.550;2022-09-12T04:45:06;12.63;;;9.93;;
71265;SDS011;59030;52.052;8.550;2022-09-12T04:47:33;12.47;;;9.73;;
71265;SDS011;59030;52.052;8.550;2022-09-12T04:50:00;12.40;;;9.40;;
71265;SDS011;59030;52.052;8.550;2022-09-12T04:52:28;13.77;;;10.30;;
71265;SDS011;59030;52.052;8.550;2022-09-12T04:54:55;12.60;;;9.47;;
71265;SDS011;59030;52.052;8.550;2022-09-12T04:57:23;13.63;;;9.87;;
71265;SDS011;59030;52.052;8.550;2022-09-12T04:59:51;13.73;;;9.70;;
71265;SDS011;59030;52.052;8.550;2022-09-12T05:02:18;13.27;;;10.07;;
71265;SDS011;59030;52.052;8.550;2022-09-12T05:04:45;11.60;;;9.47;;
71265;SDS011;59030;52.052;8.550;2022-09-12T05:07:12;14.33;;;9.90;;
71265;SDS011;59030;52.052;8.550;2022-09-12T05:09:40;13.00;;;10.13;;
71265;SDS011;59030;52.052;8.550;2022-09-12T05:12:07;13.63;;;10.43;;
71265;SDS011;59030;52.052;8.550;2022-09-12T05:14:34;18.53;;;9.83;;
71265;SDS011;59030;52.052;8.550;2022-09-12T05:17:02;14.73;;;10.10;;
71265;SDS011;59030;52.052;8.550;2022-09-12T05:19:31;14.07;;;10.73;;
71265;SDS011;59030;52.052;8.550;2022-09-12T05:21:58;12.90;;;10.00;;
71265;SDS011;59030;52.052;8.550;2022-09-12T05:24:26;11.27;;;9.63;;
71265;SDS011;59030;52.052;8.550;2022-09-12T05:26:53;15.43;;;9.97;;
71265;SDS011;59030;52.052;8.550;2022-09-12T05:29:20;14.43;;;10.90;;
71265;SDS011;59030;52.052;8.550;2022-09-12T05:31:47;15.17;;;10.60;;
71265;SDS011;59030;52.052;8.550;2022-09-12T05:34:17;14.93;;;10.47;;
71265;SDS011;59030;52.052;8.550;2022-09-12T05:36:44;12.67;;;10.00;;
71265;SDS011;59030;52.052;8.550;2022-09-12T05:39:11;13.07;;;10.30;;
71265;SDS011;59030;52.052;8.550;2022-09-12T05:41:38;16.37;;;10.73;;
71265;SDS011;59030;52.052;8.550;2022-09-12T05:44:06;15.87;;;10.23;;
71265;SDS011;59030;52.052;8.550;2022-09-12T05:46:36;12.47;;;10.57;;
71265;SDS011;59030;52.052;8.550;2022-09-12T05:49:05;14.30;;;10.60;;
71265;SDS011;59030;52.052;8.550;2022-09-12T05:51:34;14.07;;;10.90;;
71265;SDS011;59030;52.052;8.550;2022-09-12T05:54:04;15.77;;;11.07;;
71265;SDS011;59030;52.052;8.550;2022-09-12T05:56:33;14.17;;;10.73;;
71265;SDS011;59030;52.052;8.550;2022-09-12T05:59:02;14.87;;;11.33;;
71265;SDS011;59030;52.052;8.550;2022-09-12T06:01:32;14.43;;;11.30;;
71265;SDS011;59030;52.052;8.550;2022-09-12T06:04:00;16.70;;;12.17;;
71265;SDS011;59030;52.052;8.550;2022-09-12T06:06:28;15.30;;;11.63;;
71265;SDS011;59030;52.052;8.550;2022-09-12T06:08:57;19.90;;;11.97;;
71265;SDS011;59030;52.052;8.550;2022-09-12T06:11:25;16.93;;;12.10;;
71265;SDS011;59030;52.052;8.550;2022-09-12T06:13:54;15.60;;;11.47;;
71265;SDS011;59030;52.052;8.550;2022-09-12T06:16:22;14.20;;;11.27;;
71265;SDS011;59030;52.052;8.550;2022-09-12T06:18:51;15.23;;;11.27;;
71265;SDS011;59030;52.052;8.550;2022-09-12T06:21:19;14.53;;;11.13;;
71265;SDS011;59030;52.052;8.550;2022-09-12T06:23:47;14.20;;;11.70;;
71265;SDS011;59030;52.052;8.550;2022-09-12T06:26:15;16.47;;;11.63;;
71265;SDS011;59030;52.052;8.550;2022-09-12T06:28:43;15.10;;;12.37;;
71265;SDS011;59030;52.052;8.550;2022-09-12T06:31:12;14.90;;;11.77;;
71265;SDS011;59030;52.052;8.550;2022-09-12T06:33:40;16.70;;;12.30;;
71265;SDS011;59030;52.052;8.550;2022-09-12T06:36:09;15.67;;;10.90;;
71265;SDS011;59030;52.052;8.550;2022-09-12T06:38:38;15.53;;;11.30;;
71265;SDS011;59030;52.052;8.550;2022-09-12T06:41:06;15.50;;;11.87;;
71265;SDS011;59030;52.052;8.550;2022-09-12T06:43:37;16.40;;;12.00;;
71265;SDS011;59030;52.052;8.550;2022-09-12T06:46:04;16.10;;;12.50;;
71265;SDS011;59030;52.052;8.550;2022-09-12T06:48:32;17.77;;;12.27;;
71265;SDS011;59030;52.052;8.550;2022-09-12T06:51:00;16.07;;;12.73;;
71265;SDS011;59030;52.052;8.550;2022-09-12T06:53:29;15.57;;;12.30;;
71265;SDS011;59030;52.052;8.550;2022-09-12T06:55:58;16.40;;;12.57;;
71265;SDS011;59030;52.052;8.550;2022-09-12T06:58:26;19.03;;;12.23;;
71265;SDS011;59030;52.052;8.550;2022-09-12T07:01:00;16.03;;;11.67;;
71265;SDS011;59030;52.052;8.550;2022-09-12T07:03:28;16.50;;;12.30;;
71265;SDS011;59030;52.052;8.550;2022-09-12T07:05:56;17.80;;;12.23;;
71265;SDS011;59030;52.052;8.550;2022-09-12T07:08:24;16.13;;;11.80;;
71265;SDS011;59030;52.052;8.550;2022-09-12T07:10:53;15.43;;;12.53;;
71265;SDS011;59030;52.052;8.550;2022-09-12T07:13:20;16.60;;;12.10;;
71265;SDS011;59030;52.052;8.550;2022-09-12T07:15:48;16.90;;;12.67;;
71265;SDS011;59030;52.052;8.550;2022-09-12T07:18:16;16.37;;;12.57;;
71265;SDS011;59030;52.052;8.550;2022-09-12T07:20:43;15.27;;;12.20;;
71265;SDS011;59030;52.052;8.550;2022-09-12T07:23:11;20.07;;;12.53;;
71265;SDS011;59030;52.052;8.550;2022-09-12T07:25:39;15.73;;;11.30;;
71265;SDS011;59030;52.052;8.550;2022-09-12T07:28:07;16.93;;;11.73;;
71265;SDS011;59030;52.052;8.550;2022-09-12T07:30:36;14.20;;;11.77;;
71265;SDS011;59030;52.052;8.550;2022-09-12T07:33:04;15.47;;;11.87;;
71265;SDS011;59030;52.052;8.550;2022-09-12T07:35:32;16.50;;;11.53;;
71265;SDS011;59030;52.052;8.550;2022-09-12T07:37:59;16.23;;;11.10;;
71265;SDS011;59030;52.052;8.550;2022-09-12T07:40:27;16.53;;;11.47;;
71265;SDS011;59030;52.052;8.550;2022-09-12T07:42:55;14.97;;;11.23;;
71265;SDS011;59030;52.052;8.550;2022-09-12T07:45:22;13.70;;;11.50;;
71265;SDS011;59030;52.052;8.550;2022-09-12T07:47:52;13.07;;;10.97;;
71265;SDS011;59030;52.052;8.550;2022-09-12T07:50:20;14.03;;;11.07;;
71265;SDS011;59030;52.052;8.550;2022-09-12T07:52:47;14.43;;;11.30;;
71265;SDS011;59030;52.052;8.550;2022-09-12T07:55:15;13.40;;;10.50;;
71265;SDS011;59030;52.052;8.550;2022-09-12T07:57:43;15.93;;;10.63;;
71265;SDS011;59030;52.052;8.550;2022-09-12T08:00:12;11.57;;;9.47;;
71265;SDS011;59030;52.052;8.550;2022-09-12T08:02:40;12.27;;;10.00;;
71265;SDS011;59030;52.052;8.550;2022-09-12T08:05:08;12.77;;;10.07;;
71265;SDS011;59030;52.052;8.550;2022-09-12T08:07:36;13.97;;;9.30;;
71265;SDS011;59030;52.052;8.550;2022-09-12T08:10:04;15.23;;;10.40;;
71265;SDS011;59030;52.052;8.550;2022-09-12T08:12:32;11.77;;;9.87;;
71265;SDS011;59030;52.052;8.550;2022-09-12T08:14:59;13.23;;;9.67;;
71265;SDS011;59030;52.052;8.550;2022-09-12T08:17:27;11.20;;;9.50;;
71265;SDS011;59030;52.052;8.550;2022-09-12T08:19:54;10.53;;;8.57;;
71265;SDS011;59030;52.052;8.550;2022-09-12T08:22:21;11.67;;;9.57;;
71265;SDS011;59030;52.052;8.550;2022-09-12T08:24:49;12.13;;;9.10;;
71265;SDS011;59030;52.052;8.550;2022-09-12T08:27:16;11.97;;;9.40;;
71265;SDS011;59030;52.052;8.550;2022-09-12T08:29:43;11.37;;;8.97;;
71265;SDS011;59030;52.052;8.550;2022-09-12T08:32:11;11.07;;;8.97;;
71265;SDS011;59030;52.052;8.550;2022-09-12T08:34:38;10.13;;;8.50;;
71265;SDS011;59030;52.052;8.550;2022-09-12T08:37:05;10.20;;;8.10;;
71265;SDS011;59030;52.052;8.550;2022-09-12T08:39:32;13.20;;;9.20;;
71265;SDS011;59030;52.052;8.550;2022-09-12T08:42:00;12.47;;;8.77;;
71265;SDS011;59030;52.052;8.550;2022-09-12T08:44:35;11.00;;;8.90;;
71265;SDS011;59030;52.052;8.550;2022-09-12T08:47:13;11.60;;;8.90;;
71265;SDS011;59030;52.052;8.550;2022-09-12T08:49:43;9.57;;;8.13;;
71265;SDS011;59030;52.052;8.550;2022-09-12T08:52:10;10.07;;;8.20;;
71265;SDS011;59030;52.052;8.550;2022-09-12T08:54:38;10.43;;;7.63;;
71265;SDS011;59030;52.052;8.550;2022-09-12T08:57:08;9.17;;;7.50;;
71265;SDS011;59030;52.052;8.550;2022-09-12T08:59:37;8.77;;;7.40;;
71265;SDS011;59030;52.052;8.550;2022-09-12T09:02:12;9.33;;;7.00;;
71265;SDS011;59030;52.052;8.550;2022-09-12T09:04:41;8.70;;;7.23;;
71265;SDS011;59030;52.052;8.550;2022-09-12T09:07:17;9.33;;;7.50;;
71265;SDS011;59030;52.052;8.550;2022-09-12T09:09:52;7.97;;;6.50;;
71265;SDS011;59030;52.052;8.550;2022-09-12T09:12:21;7.70;;;6.90;;
71265;SDS011;59030;52.052;8.550;2022-09-12T09:14:53;9.30;;;6.83;;
71265;SDS011;59030;52.052;8.550;2022-09-12T09:17:22;8.50;;;6.50;;
71265;SDS011;59030;52.052;8.550;2022-09-12T09:19:51;8.80;;;6.67;;
71265;SDS011;59030;52.052;8.550;2022-09-12T09:22:22;8.73;;;7.50;;
71265;SDS011;59030;52.052;8.550;2022-09-12T09:24:50;7.77;;;6.67;;
71265;SDS011;59030;52.052;8.550;2022-09-12T09:27:21;7.90;;;6.50;;
71265;SDS011;59030;52.052;8.550;2022-09-12T09:29:50;8.53;;;6.63;;
71265;SDS011;59030;52.052;8.550;2022-09-12T09:32:21;7.33;;;6.23;;
71265;SDS011;59030;52.052;8.550;2022-09-12T09:34:47;9.87;;;6.13;;
71265;SDS011;59030;52.052;8.550;2022-09-12T09:37:15;6.67;;;5.60;;
71265;SDS011;59030;52.052;8.550;2022-09-12T09:39:47;7.93;;;5.43;;
71265;SDS011;59030;52.052;8.550;2022-09-12T09:42:21;6.73;;;5.70;;
71265;SDS011;59030;52.052;8.550;2022-09-12T09:44:48;5.87;;;4.77;;
71265;SDS011;59030;52.052;8.550;2022-09-12T09:47:16;8.50;;;6.10;;
71265;SDS011;59030;52.052;8.550;2022-09-12T09:49:44;6.93;;;5.73;;
71265;SDS011;59030;52.052;8.550;2022-09-12T09:52:12;5.90;;;5.30;;
71265;SDS011;59030;52.052;8.550;2022-09-12T09:54:41;6.80;;;5.57;;
71265;SDS011;59030;52.052;8.550;2022-09-12T09:59:55;7.77;;;5.47;;
71265;SDS011;59030;52.052;8.550;2022-09-12T10:02:23;6.47;;;5.20;;
71265;SDS011;59030;52.052;8.550;2022-09-12T10:04:54;6.73;;;5.30;;
71265;SDS011;59030;52.052;8.550;2022-09-12T10:07:22;5.90;;;4.97;;
71265;SDS011;59030;52.052;8.550;2022-09-12T10:10:04;6.97;;;4.93;;
71265;SDS011;59030;52.052;8.550;2022-09-12T10:12:33;7.37;;;5.37;;
71265;SDS011;59030;52.052;8.550;2022-09-12T10:15:01;7.50;;;5.20;;
71265;SDS011;59030;52.052;8.550;2022-09-12T10:17:30;7.63;;;4.70;;
71265;SDS011;59030;52.052;8.550;2022-09-12T10:19:57;7.90;;;5.03;;
71265;SDS011;59030;52.052;8.550;2022-09-12T10:22:26;7.23;;;5.33;;
71265;SDS011;59030;52.052;8.550;2022-09-12T10:24:54;5.00;;;4.50;;
71265;SDS011;59030;52.052;8.550;2022-09-12T10:27:22;6.90;;;4.80;;
71265;SDS011;59030;52.052;8.550;2022-09-12T10:29:51;7.20;;;5.53;;
71265;SDS011;59030;52.052;8.550;2022-09-12T10:32:23;5.77;;;4.57;;
71265;SDS011;59030;52.052;8.550;2022-09-12T10:34:52;5.97;;;5.17;;
71265;SDS011;59030;52.052;8.550;2022-09-12T10:37:23;5.57;;;4.40;;
71265;SDS011;59030;52.052;8.550;2022-09-12T10:39:51;5.30;;;4.30;;
71265;SDS011;59030;52.052;8.550;2022-09-12T10:45:14;4.70;;;4.30;;
71265;SDS011;59030;52.052;8.550;2022-09-12T10:47:41;6.23;;;4.53;;
71265;SDS011;59030;52.052;8.550;2022-09-12T10:50:22;4.90;;;4.40;;
71265;SDS011;59030;52.052;8.550;2022-09-12T10:52:51;5.80;;;4.50;;
71265;SDS011;59030;52.052;8.550;2022-09-12T10:55:20;8.20;;;5.77;;
71265;SDS011;59030;52.052;8.550;2022-09-12T10:57:52;7.50;;;5.17;;
71265;SDS011;59030;52.052;8.550;2022-09-12T11:00:19;5.30;;;4.13;;
71265;SDS011;59030;52.052;8.550;2022-09-12T11:02:56;5.37;;;4.77;;
71265;SDS011;59030;52.052;8.550;2022-09-12T11:05:28;5.07;;;4.27;;
71265;SDS011;59030;52.052;8.550;2022-09-12T11:07:57;7.10;;;5.10;;
71265;SDS011;59030;52.052;8.550;2022-09-12T11:10:29;5.37;;;4.30;;
71265;SDS011;59030;52.052;8.550;2022-09-12T11:12:59;4.90;;;4.40;;
71265;SDS011;59030;52.052;8.550;2022-09-12T11:15:33;6.40;;;4.00;;
71265;SDS011;59030;52.052;8.550;2022-09-12T11:18:02;7.77;;;4.53;;
71265;SDS011;59030;52.052;8.550;2022-09-12T11:20:41;8.13;;;5.67;;
71265;SDS011;59030;52.052;8.550;2022-09-12T11:26:10;6.33;;;4.43;;
71265;SDS011;59030;52.052;8.550;2022-09-12T11:28:40;7.37;;;5.57;;
71265;SDS011;59030;52.052;8.550;2022-09-12T11:31:18;5.20;;;4.40;;
71265;SDS011;59030;52.052;8.550;2022-09-12T11:33:45;4.90;;;4.30;;
71265;SDS011;59030;52.052;8.550;2022-09-12T11:36:18;5.70;;;4.30;;
71265;SDS011;59030;52.052;8.550;2022-09-12T11:38:47;4.70;;;4.13;;
71265;SDS011;59030;52.052;8.550;2022-09-12T11:41:17;6.07;;;4.47;;
71265;SDS011;59030;52.052;8.550;2022-09-12T11:43:46;4.50;;;3.83;;
71265;SDS011;59030;52.052;8.550;2022-09-12T11:46:16;5.33;;;4.43;;
71265;SDS011;59030;52.052;8.550;2022-09-12T11:48:45;7.37;;;4.70;;
71265;SDS011;59030;52.052;8.550;2022-09-12T11:51:17;5.90;;;4.50;;
71265;SDS011;59030;52.052;8.550;2022-09-12T11:53:46;7.13;;;5.03;;
71265;SDS011;59030;52.052;8.550;2022-09-12T11:56:16;6.63;;;4.70;;
71265;SDS011;59030;52.052;8.550;2022-09-12T11:58:45;8.30;;;5.63;;
71265;SDS011;59030;52.052;8.550;2022-09-12T12:01:14;6.93;;;5.00;;
71265;SDS011;59030;52.052;8.550;2022-09-12T12:03:42;6.23;;;4.80;;
71265;SDS011;59030;52.052;8.550;2022-09-12T12:06:11;8.53;;;5.50;;
71265;SDS011;59030;52.052;8.550;2022-09-12T12:08:39;6.73;;;4.93;;
71265;SDS011;59030;52.052;8.550;2022-09-12T12:11:23;5.23;;;4.33;;
71265;SDS011;59030;52.052;8.550;2022-09-12T12:13:37;7.07;;;4.90;;
71265;SDS011;59030;52.052;8.550;2022-09-12T12:16:06;5.87;;;4.93;;
71265;SDS011;59030;52.052;8.550;2022-09-12T12:18:35;7.67;;;5.00;;
71265;SDS011;59030;52.052;8.550;2022-09-12T12:24:09;6.50;;;5.00;;
71265;SDS011;59030;52.052;8.550;2022-09-12T12:26:43;6.53;;;4.90;;
71265;SDS011;59030;52.052;8.550;2022-09-12T12:29:11;9.00;;;5.03;;
71265;SDS011;59030;52.052;8.550;2022-09-12T12:34:28;6.20;;;4.60;;
71265;SDS011;59030;52.052;8.550;2022-09-12T12:36:56;6.53;;;4.63;;
71265;SDS011;59030;52.052;8.550;2022-09-12T12:45:01;6.63;;;5.00;;
71265;SDS011;59030;52.052;8.550;2022-09-12T12:47:30;6.63;;;5.37;;
71265;SDS011;59030;52.052;8.550;2022-09-12T12:49:59;6.50;;;4.73;;
71265;SDS011;59030;52.052;8.550;2022-09-12T12:52:27;6.83;;;5.43;;
71265;SDS011;59030;52.052;8.550;2022-09-12T12:54:56;5.30;;;4.80;;
71265;SDS011;59030;52.052;8.550;2022-09-12T12:57:33;6.03;;;4.73;;
71265;SDS011;59030;52.052;8.550;2022-09-12T13:00:03;6.37;;;4.20;;
71265;SDS011;59030;52.052;8.550;2022-09-12T13:02:31;6.57;;;4.73;;
71265;SDS011;59030;52.052;8.550;2022-09-12T13:05:00;6.67;;;4.57;;
71265;SDS011;59030;52.052;8.550;2022-09-12T13:07:30;6.17;;;4.63;;
71265;SDS011;59030;52.052;8.550;2022-09-12T13:09:58;6.57;;;4.70;;
71265;SDS011;59030;52.052;8.550;2022-09-12T13:12:27;4.20;;;3.80;;
71265;SDS011;59030;52.052;8.550;2022-09-12T13:14:55;5.80;;;4.33;;
71265;SDS011;59030;52.052;8.550;2022-09-12T13:17:26;5.20;;;4.70;;
71265;SDS011;59030;52.052;8.550;2022-09-12T13:20:02;4.97;;;4.23;;
71265;SDS011;59030;52.052;8.550;2022-09-12T13:22:23;5.70;;;4.30;;
71265;SDS011;59030;52.052;8.550;2022-09-12T13:24:51;4.70;;;4.30;;
71265;SDS011;59030;52.052;8.550;2022-09-12T13:27:19;5.97;;;4.33;;
71265;SDS011;59030;52.052;8.550;2022-09-12T13:29:47;6.47;;;4.23;;
71265;SDS011;59030;52.052;8.550;2022-09-12T13:32:14;5.50;;;4.70;;
71265;SDS011;59030;52.052;8.550;2022-09-12T13:34:47;5.73;;;4.67;;
71265;SDS011;59030;52.052;8.550;2022-09-12T13:37:21;7.53;;;5.10;;
71265;SDS011;59030;52.052;8.550;2022-09-12T13:39:52;6.30;;;4.47;;
71265;SDS011;59030;52.052;8.550;2022-09-12T13:42:39;5.10;;;4.00;;
71265;SDS011;59030;52.052;8.550;2022-09-12T13:45:11;5.73;;;4.30;;
71265;SDS011;59030;52.052;8.550;2022-09-12T13:47:40;5.50;;;4.60;;
71265;SDS011;59030;52.052;8.550;2022-09-12T13:50:12;4.40;;;4.00;;
71265;SDS011;59030;52.052;8.550;2022-09-12T13:52:39;5.77;;;4.50;;
71265;SDS011;59030;52.052;8.550;2022-09-12T13:55:12;4.77;;;4.27;;
71265;SDS011;59030;52.052;8.550;2022-09-12T13:57:38;5.57;;;4.33;;
71265;SDS011;59030;52.052;8.550;2022-09-12T14:00:11;5.47;;;4.20;;
71265;SDS011;59030;52.052;8.550;2022-09-12T14:02:39;5.13;;;4.20;;
71265;SDS011;59030;52.052;8.550;2022-09-12T14:05:13;4.23;;;3.83;;
71265;SDS011;59030;52.052;8.550;2022-09-12T14:07:50;4.23;;;3.83;;
71265;SDS011;59030;52.052;8.550;2022-09-12T14:10:20;5.47;;;4.20;;
71265;SDS011;59030;52.052;8.550;2022-09-12T14:12:49;6.73;;;4.23;;
71265;SDS011;59030;52.052;8.550;2022-09-12T14:15:17;4.53;;;3.90;;
71265;SDS011;59030;52.052;8.550;2022-09-12T14:17:48;5.43;;;4.20;;
71265;SDS011;59030;52.052;8.550;2022-09-12T14:20:17;4.07;;;3.63;;
71265;SDS011;59030;52.052;8.550;2022-09-12T14:22:45;6.50;;;4.80;;
71265;SDS011;59030;52.052;8.550;2022-09-12T14:25:13;4.50;;;4.03;;
71265;SDS011;59030;52.052;8.550;2022-09-12T14:27:42;4.33;;;3.87;;
71265;SDS011;59030;52.052;8.550;2022-09-12T14:30:19;5.50;;;4.20;;
71265;SDS011;59030;52.052;8.550;2022-09-12T14:33:15;4.70;;;3.83;;
71265;SDS011;59030;52.052;8.550;2022-09-12T14:35:41;6.07;;;4.17;;
71265;SDS011;59030;52.052;8.550;2022-09-12T14:38:11;4.80;;;4.30;;
71265;SDS011;59030;52.052;8.550;2022-09-12T14:40:40;4.47;;;4.03;;
71265;SDS011;59030;52.052;8.550;2022-09-12T14:43:15;4.50;;;3.90;;
71265;SDS011;59030;52.052;8.550;2022-09-12T14:45:48;6.77;;;4.33;;
71265;SDS011;59030;52.052;8.550;2022-09-12T14:48:13;4.77;;;4.27;;
71265;SDS011;59030;52.052;8.550;2022-09-12T14:50:42;4.57;;;4.13;;
71265;SDS011;59030;52.052;8.550;2022-09-12T14:53:20;5.77;;;4.20;;
71265;SDS011;59030;52.052;8.550;2022-09-12T14:55:45;4.53;;;4.07;;
71265;SDS011;59030;52.052;8.550;2022-09-12T14:58:14;4.77;;;4.20;;
71265;SDS011;59030;52.052;8.550;2022-09-12T15:00:52;5.93;;;4.30;;
71265;SDS011;59030;52.052;8.550;2022-09-12T15:03:23;4.70;;;4.23;;
71265;SDS011;59030;52.052;8.550;2022-09-12T15:05:51;5.80;;;4.10;;
71265;SDS011;59030;52.052;8.550;2022-09-12T15:08:18;4.60;;;4.10;;
71265;SDS011;59030;52.052;8.550;2022-09-12T15:10:46;4.67;;;4.10;;